createdAt,value
2019-02-08T00:01:59.954Z,28.83
2019-02-08T00:04:26.625Z,28.07
2019-02-08T00:06:53.246Z,20.60
2019-02-08T00:09:19.950Z,19.77
2019-02-08T00:11:46.981Z,20.03
2019-02-08T00:14:13.653Z,17.37
2019-02-08T00:16:40.286Z,21.70
2019-02-08T00:19:06.964Z,16.97
2019-02-08T00:21:33.691Z,28.90
2019-02-08T00:24:00.401Z,19.70
2019-02-08T00:26:27.163Z,19.90
2019-02-08T00:28:53.882Z,19.57
2019-02-08T00:31:21.053Z,13.37
2019-02-08T00:33:47.747Z,24.13
2019-02-08T00:36:14.406Z,21.53
2019-02-08T00:38:41.022Z,22.83
2019-02-08T00:41:07.806Z,24.83
2019-02-08T00:43:34.428Z,18.23
2019-02-08T00:46:01.113Z,22.93
2019-02-08T00:48:27.768Z,16.93
2019-02-08T00:50:54.420Z,23.67
2019-02-08T00:53:21.510Z,14.23
2019-02-08T00:55:48.296Z,17.13
2019-02-08T00:58:14.963Z,14.77
2019-02-08T01:00:41.693Z,19.53
2019-02-08T01:03:08.486Z,15.17
2019-02-08T01:05:35.127Z,17.23
2019-02-08T01:08:01.845Z,15.10
2019-02-08T01:10:32.486Z,12.80
2019-02-08T01:13:00.363Z,18.97
2019-02-08T01:15:28.366Z,17.37
2019-02-08T01:17:55.141Z,22.87
2019-02-08T01:20:23.477Z,14.17
2019-02-08T01:22:50.463Z,14.37
2019-02-08T01:25:21.818Z,17.13
2019-02-08T01:27:48.573Z,15.97
2019-02-08T01:30:23.249Z,19.83
2019-02-08T01:32:50.324Z,12.53
2019-02-08T01:35:18.445Z,12.80
2019-02-08T01:37:45.525Z,18.73
2019-02-08T01:40:14.855Z,19.23
2019-02-08T01:42:41.513Z,18.67
2019-02-08T01:45:11.646Z,20.73
2019-02-08T01:47:38.329Z,14.20
2019-02-08T01:50:08.558Z,12.93
2019-02-08T01:52:35.274Z,13.73
2019-02-08T01:55:01.924Z,17.00
2019-02-08T01:57:28.689Z,12.83
2019-02-08T01:59:55.347Z,14.17
2019-02-08T02:02:21.988Z,12.70
2019-02-08T02:04:48.770Z,13.27
2019-02-08T02:07:15.425Z,19.33
2019-02-08T02:09:42.197Z,11.67
2019-02-08T02:12:08.810Z,16.00
2019-02-08T02:17:17.565Z,16.10
2019-02-08T02:19:44.248Z,10.70
2019-02-08T02:22:10.986Z,16.03
2019-02-08T02:24:37.671Z,13.70
2019-02-08T02:27:04.329Z,12.80
2019-02-08T02:29:31.026Z,11.37
2019-02-08T02:31:57.754Z,11.33
2019-02-08T02:34:24.423Z,21.80
2019-02-08T02:36:51.067Z,9.67
2019-02-08T02:39:17.721Z,13.53
2019-02-08T02:41:44.380Z,9.47
2019-02-08T02:44:11.035Z,10.17
2019-02-08T02:46:37.691Z,11.57
2019-02-08T02:49:04.360Z,15.67
2019-02-08T02:51:30.997Z,13.10
2019-02-08T02:54:04.697Z,9.53
2019-02-08T02:56:26.137Z,11.93
2019-02-08T02:58:52.806Z,11.10
2019-02-08T03:01:19.524Z,11.20
2019-02-08T03:03:46.287Z,11.57
2019-02-08T03:06:13.282Z,9.77
2019-02-08T03:08:39.960Z,10.80
2019-02-08T03:11:06.594Z,7.60
2019-02-08T03:13:33.274Z,9.13
2019-02-08T03:15:59.938Z,11.13
2019-02-08T03:18:26.706Z,8.67
2019-02-08T03:20:53.483Z,8.63
2019-02-08T03:23:20.114Z,9.77
2019-02-08T03:25:46.817Z,7.73
2019-02-08T03:28:13.560Z,7.87
2019-02-08T03:30:44.664Z,12.70
2019-02-08T03:33:11.286Z,7.70
2019-02-08T03:35:38.156Z,8.67
2019-02-08T03:38:04.898Z,8.20
2019-02-08T03:40:31.685Z,9.33
2019-02-08T03:42:58.407Z,14.87
2019-02-08T03:45:27.000Z,8.37
2019-02-08T03:47:54.013Z,8.90
2019-02-08T03:50:22.387Z,10.13
2019-02-08T03:52:49.924Z,10.43
2019-02-08T03:55:18.812Z,15.10
2019-02-08T03:57:45.450Z,10.00
2019-02-08T04:00:15.207Z,11.23
2019-02-08T04:02:41.914Z,7.73
2019-02-08T04:05:08.581Z,8.37
2019-02-08T04:07:35.315Z,8.60
2019-02-08T04:10:04.076Z,7.60
2019-02-08T04:12:30.803Z,10.40
2019-02-08T04:14:57.423Z,8.13
2019-02-08T04:17:24.087Z,13.70
2019-02-08T04:19:50.730Z,9.30
2019-02-08T04:22:17.394Z,7.07
2019-02-08T04:24:44.049Z,6.70
2019-02-08T04:27:10.709Z,9.37
2019-02-08T04:29:37.362Z,7.27
2019-02-08T04:32:03.976Z,10.60
2019-02-08T04:34:30.669Z,8.27
2019-02-08T04:36:57.289Z,9.40
2019-02-08T04:39:23.981Z,6.80
2019-02-08T04:41:50.719Z,7.83
2019-02-08T04:44:17.525Z,8.87
2019-02-08T04:46:44.206Z,6.50
2019-02-08T04:49:10.841Z,6.70
2019-02-08T04:51:37.514Z,7.63
2019-02-08T04:54:04.154Z,14.77
2019-02-08T04:56:30.826Z,9.03
2019-02-08T04:58:57.465Z,5.57
2019-02-08T05:01:24.265Z,7.00
2019-02-08T05:03:50.954Z,7.33
2019-02-08T05:06:17.580Z,12.10
2019-02-08T05:08:44.341Z,7.10
2019-02-08T05:11:10.991Z,5.57
2019-02-08T05:13:37.777Z,12.47
2019-02-08T05:16:04.529Z,7.73
2019-02-08T05:18:31.237Z,8.40
2019-02-08T05:20:57.865Z,8.27
2019-02-08T05:23:24.546Z,7.00
2019-02-08T05:25:51.164Z,8.50
2019-02-08T05:28:17.786Z,9.07
2019-02-08T05:30:44.481Z,8.90
2019-02-08T05:33:11.141Z,6.10
2019-02-08T05:35:37.784Z,10.23
2019-02-08T05:38:04.610Z,5.73
2019-02-08T05:40:31.768Z,9.73
2019-02-08T05:42:58.909Z,7.73
2019-02-08T05:45:25.839Z,5.83
2019-02-08T05:47:52.662Z,8.87
2019-02-08T05:50:27.739Z,6.50
2019-02-08T05:52:54.810Z,5.90
2019-02-08T05:55:27.372Z,6.03
2019-02-08T05:57:54.033Z,6.67
2019-02-08T06:00:34.734Z,7.27
2019-02-08T06:03:01.431Z,10.30
2019-02-08T06:05:28.153Z,7.70
2019-02-08T06:07:54.847Z,7.43
2019-02-08T06:10:21.488Z,10.43
2019-02-08T06:12:48.114Z,7.40
2019-02-08T06:15:22.797Z,8.10
2019-02-08T06:17:49.464Z,11.47
2019-02-08T06:20:20.766Z,7.30
2019-02-08T06:22:47.413Z,5.67
2019-02-08T06:25:15.673Z,8.27
2019-02-08T06:27:42.902Z,6.30
2019-02-08T06:30:24.102Z,10.30
2019-02-08T06:32:51.070Z,12.50
2019-02-08T06:35:19.712Z,10.10
2019-02-08T06:37:46.558Z,10.20
2019-02-08T06:40:21.614Z,6.70
2019-02-08T06:42:48.583Z,7.87
2019-02-08T06:45:17.957Z,6.63
2019-02-08T06:47:44.693Z,7.33
2019-02-08T06:50:14.665Z,7.80
2019-02-08T06:52:41.291Z,7.60
2019-02-08T06:55:11.034Z,7.23
2019-02-08T06:57:38.480Z,10.10
2019-02-08T07:00:09.456Z,8.17
2019-02-08T07:02:38.019Z,11.93
2019-02-08T07:05:26.084Z,10.77
2019-02-08T07:07:57.425Z,7.87
2019-02-08T07:10:42.344Z,7.60
2019-02-08T07:13:10.869Z,12.23
2019-02-08T07:15:42.012Z,14.70
2019-02-08T07:18:13.521Z,10.00
2019-02-08T07:20:42.049Z,7.73
2019-02-08T07:23:10.645Z,9.17
2019-02-08T07:25:41.936Z,7.83
2019-02-08T07:28:19.325Z,10.83
2019-02-08T07:30:50.394Z,7.73
2019-02-08T07:33:21.648Z,11.87
2019-02-08T07:35:59.589Z,11.73
2019-02-08T07:38:30.971Z,11.27
2019-02-08T07:41:12.899Z,9.27
2019-02-08T07:43:58.026Z,7.90
2019-02-08T07:46:29.905Z,18.23
2019-02-08T07:48:58.854Z,5.20
2019-02-08T07:51:33.417Z,14.43
2019-02-08T07:54:04.766Z,8.53
2019-02-08T07:56:48.508Z,5.20
2019-02-08T07:59:19.781Z,6.67
2019-02-08T08:01:48.347Z,8.60
2019-02-08T08:04:23.817Z,9.03
2019-02-08T08:06:55.365Z,10.50
2019-02-08T08:09:42.658Z,10.97
2019-02-08T08:12:27.057Z,7.20
2019-02-08T08:14:55.679Z,5.77
2019-02-08T08:17:40.864Z,9.73
2019-02-08T08:20:13.101Z,8.43
2019-02-08T08:22:56.802Z,5.43
2019-02-08T08:25:37.914Z,10.10
2019-02-08T08:28:12.017Z,7.60
2019-02-08T08:30:46.791Z,6.67
2019-02-08T08:33:17.630Z,9.00
2019-02-08T08:35:47.913Z,5.67
2019-02-08T08:38:27.425Z,5.27
2019-02-08T08:41:14.547Z,7.50
2019-02-08T08:43:50.569Z,6.00
2019-02-08T08:46:50.185Z,9.83
2019-02-08T08:49:40.448Z,11.20
2019-02-08T08:52:20.070Z,9.37
2019-02-08T08:55:10.533Z,10.07
2019-02-08T08:57:50.145Z,5.30
2019-02-08T09:00:46.373Z,6.17
2019-02-08T09:03:25.540Z,6.97
2019-02-08T09:06:12.483Z,11.47
2019-02-08T09:08:48.480Z,6.40
2019-02-08T09:11:24.874Z,6.60
2019-02-08T09:14:01.154Z,8.37
2019-02-08T09:16:46.610Z,11.07
2019-02-08T09:19:47.651Z,5.97
2019-02-08T09:22:39.064Z,8.87
2019-02-08T09:25:26.002Z,6.10
2019-02-08T09:28:05.212Z,6.57
2019-02-08T09:30:50.471Z,6.97
2019-02-08T09:33:20.766Z,7.63
2019-02-08T09:35:56.829Z,8.27
2019-02-08T09:38:38.696Z,5.73
2019-02-08T09:41:17.594Z,8.33
2019-02-08T09:44:02.718Z,7.60
2019-02-08T09:46:49.870Z,8.43
2019-02-08T09:49:32.188Z,6.73
2019-02-08T09:52:30.206Z,6.17
2019-02-08T09:55:03.105Z,8.87
2019-02-08T09:57:51.739Z,10.63
2019-02-08T10:00:52.680Z,4.70
2019-02-08T10:03:42.584Z,13.80
2019-02-08T10:06:44.709Z,6.47
2019-02-08T10:09:41.141Z,5.60
2019-02-08T10:12:38.293Z,6.70
2019-02-08T10:15:25.189Z,7.10
2019-02-08T10:18:29.451Z,6.30
2019-02-08T10:21:14.664Z,5.33
2019-02-08T10:24:08.761Z,9.03
2019-02-08T10:27:07.989Z,6.83
2019-02-08T10:30:01.449Z,12.33
2019-02-08T10:33:03.477Z,6.33
2019-02-08T10:35:45.649Z,5.23
2019-02-08T10:38:35.319Z,4.43
2019-02-08T10:41:30.501Z,4.30
2019-02-08T10:44:13.121Z,5.13
2019-02-08T10:47:12.300Z,10.53
2019-02-08T10:49:51.590Z,6.70
2019-02-08T10:52:40.189Z,4.60
2019-02-08T10:55:27.261Z,4.73
2019-02-08T10:58:20.508Z,5.73
2019-02-08T11:01:19.619Z,5.07
2019-02-08T11:04:25.226Z,5.27
2019-02-08T11:07:28.057Z,6.60
2019-02-08T11:10:06.881Z,6.63
2019-02-08T11:12:39.033Z,8.60
2019-02-08T11:15:32.241Z,11.03
2019-02-08T11:18:14.486Z,6.30
2019-02-08T11:20:41.149Z,6.03
2019-02-08T11:23:07.905Z,6.63
2019-02-08T11:25:34.598Z,6.50
2019-02-08T11:28:01.424Z,15.50
2019-02-08T11:30:28.149Z,7.40
2019-02-08T11:32:54.968Z,7.20
2019-02-08T11:35:21.655Z,6.67
2019-02-08T11:37:48.369Z,6.90
2019-02-08T11:40:18.669Z,5.57
2019-02-08T11:42:45.337Z,6.10
2019-02-08T11:45:14.133Z,7.23
2019-02-08T11:47:41.122Z,7.70
2019-02-08T11:50:11.417Z,6.10
2019-02-08T11:52:38.238Z,5.53
2019-02-08T11:55:07.290Z,5.83
2019-02-08T11:57:34.382Z,8.13
2019-02-08T12:00:01.399Z,8.40
2019-02-08T12:02:28.061Z,7.33
2019-02-08T12:04:54.787Z,10.50
2019-02-08T12:07:21.422Z,5.73
2019-02-08T12:09:48.097Z,5.70
2019-02-08T12:12:14.738Z,4.97
2019-02-08T12:14:41.421Z,5.77
2019-02-08T12:17:08.050Z,4.47
2019-02-08T12:19:34.776Z,4.47
2019-02-08T12:22:01.437Z,5.07
2019-02-08T12:24:28.138Z,4.80
2019-02-08T12:26:54.886Z,4.60
2019-02-08T12:29:21.641Z,5.30
2019-02-08T12:31:48.272Z,3.67
2019-02-08T12:34:14.917Z,7.80
2019-02-08T12:36:41.588Z,6.50
2019-02-08T12:39:08.312Z,8.00
2019-02-08T12:41:34.978Z,7.83
2019-02-08T12:44:01.610Z,4.40
2019-02-08T12:46:28.627Z,4.30
2019-02-08T12:48:55.257Z,6.60
2019-02-08T12:51:21.909Z,6.57
2019-02-08T12:53:48.540Z,4.10
2019-02-08T12:56:15.296Z,2.53
2019-02-08T12:58:42.073Z,7.70
2019-02-08T13:01:08.849Z,7.10
2019-02-08T13:03:35.497Z,4.20
2019-02-08T13:06:02.165Z,3.70
2019-02-08T13:08:28.839Z,4.93
2019-02-08T13:10:55.461Z,4.33
2019-02-08T13:13:22.133Z,3.43
2019-02-08T13:15:48.924Z,4.00
2019-02-08T13:18:15.545Z,3.63
2019-02-08T13:20:42.466Z,5.87
2019-02-08T13:23:09.077Z,3.93
2019-02-08T13:25:35.773Z,3.90
2019-02-08T13:28:02.401Z,3.70
2019-02-08T13:30:31.586Z,3.10
2019-02-08T13:32:58.212Z,3.67
2019-02-08T13:35:25.183Z,5.57
2019-02-08T13:37:51.825Z,3.13
2019-02-08T13:40:24.669Z,3.10
2019-02-08T13:42:51.309Z,4.80
2019-02-08T13:45:17.977Z,5.10
2019-02-08T13:47:44.769Z,6.40
2019-02-08T13:50:20.029Z,7.10
2019-02-08T13:52:46.757Z,3.73
2019-02-08T13:55:17.027Z,8.20
2019-02-08T13:57:43.734Z,4.30
2019-02-08T14:00:14.050Z,3.80
2019-02-08T14:02:40.843Z,3.30
2019-02-08T14:05:08.360Z,4.33
2019-02-08T14:07:35.018Z,3.80
2019-02-08T14:10:03.374Z,3.93
2019-02-08T14:12:30.037Z,3.10
2019-02-08T14:14:56.769Z,3.20
2019-02-08T14:17:23.466Z,2.93
2019-02-08T14:19:50.150Z,6.83
2019-02-08T14:22:16.853Z,8.87
2019-02-08T14:24:43.620Z,4.00
2019-02-08T14:27:10.285Z,6.10
2019-02-08T14:29:36.934Z,4.03
2019-02-08T14:32:03.595Z,3.33
2019-02-08T14:34:30.553Z,6.30
2019-02-08T14:36:57.204Z,6.73
2019-02-08T14:39:23.856Z,5.70
2019-02-08T14:41:50.511Z,4.30
2019-02-08T14:44:17.173Z,3.90
2019-02-08T14:46:45.189Z,4.17
2019-02-08T14:49:11.852Z,2.80
2019-02-08T14:51:38.480Z,4.80
2019-02-08T14:54:05.943Z,3.00
2019-02-08T14:56:32.784Z,3.07
2019-02-08T14:59:00.426Z,18.13
2019-02-08T15:01:27.030Z,3.00
2019-02-08T15:03:53.690Z,3.20
2019-02-08T15:06:20.355Z,2.50
2019-02-08T15:08:47.683Z,9.20
2019-02-08T15:11:14.486Z,3.40
2019-02-08T15:13:41.236Z,3.77
2019-02-08T15:16:08.559Z,4.17
2019-02-08T15:18:35.142Z,4.63
2019-02-08T15:21:01.830Z,4.10
2019-02-08T15:23:28.604Z,2.83
2019-02-08T15:25:55.222Z,3.47
2019-02-08T15:28:21.910Z,7.30
2019-02-08T15:30:48.648Z,2.67
2019-02-08T15:33:15.645Z,3.87
2019-02-08T15:35:42.287Z,7.93
2019-02-08T15:38:08.957Z,3.00
2019-02-08T15:40:39.921Z,11.60
2019-02-08T15:43:07.817Z,3.73
2019-02-08T15:45:34.665Z,2.80
2019-02-08T15:48:01.322Z,4.40
2019-02-08T15:50:27.951Z,3.70
2019-02-08T15:52:54.613Z,3.50
2019-02-08T15:55:24.292Z,15.30
2019-02-08T15:57:50.914Z,2.70
2019-02-08T16:00:23.297Z,2.77
2019-02-08T16:02:50.124Z,6.63
2019-02-08T16:05:18.811Z,1.83
2019-02-08T16:07:45.533Z,1.53
2019-02-08T16:10:12.577Z,3.37
2019-02-08T16:12:39.252Z,2.70
2019-02-08T16:15:15.532Z,2.50
2019-02-08T16:17:42.271Z,4.93
2019-02-08T16:20:09.546Z,4.90
2019-02-08T16:22:36.205Z,5.67
2019-02-08T16:25:06.474Z,8.70
2019-02-08T16:27:39.768Z,2.93
2019-02-08T16:30:01.768Z,2.53
2019-02-08T16:32:28.388Z,5.60
2019-02-08T16:34:55.062Z,5.83
2019-02-08T16:37:21.700Z,1.90
2019-02-08T16:39:50.963Z,2.30
2019-02-08T16:42:17.666Z,10.10
2019-02-08T16:44:44.363Z,4.17
2019-02-08T16:47:11.099Z,3.30
2019-02-08T16:49:37.720Z,6.13
2019-02-08T16:52:04.386Z,3.00
2019-02-08T16:54:31.024Z,2.50
2019-02-08T16:56:57.698Z,4.73
2019-02-08T16:59:24.324Z,2.87
2019-02-08T17:01:51.005Z,4.53
2019-02-08T17:04:17.632Z,2.67
2019-02-08T17:06:44.278Z,3.00
2019-02-08T17:09:11.655Z,5.23
2019-02-08T17:11:38.291Z,2.00
2019-02-08T17:14:04.948Z,9.87
2019-02-08T17:16:31.647Z,2.93
2019-02-08T17:18:58.271Z,6.63
2019-02-08T17:21:25.054Z,3.03
2019-02-08T17:23:51.745Z,2.40
2019-02-08T17:26:18.510Z,2.87
2019-02-08T17:28:45.144Z,3.40
2019-02-08T17:31:11.821Z,2.60
2019-02-08T17:33:38.574Z,1.77
2019-02-08T17:36:05.205Z,1.80
2019-02-08T17:38:31.892Z,2.03
2019-02-08T17:40:58.549Z,1.47
2019-02-08T17:43:25.209Z,2.20
2019-02-08T17:45:51.873Z,1.67
2019-02-08T17:48:18.627Z,4.63
2019-02-08T17:50:45.303Z,2.17
2019-02-08T17:53:11.920Z,5.53
2019-02-08T17:55:38.577Z,1.50
2019-02-08T17:58:05.334Z,2.00
2019-02-08T18:00:40.552Z,1.50
2019-02-08T18:03:07.533Z,2.37
2019-02-08T18:05:34.428Z,4.90
2019-02-08T18:08:01.096Z,2.40
2019-02-08T18:10:27.916Z,1.83
2019-02-08T18:12:54.589Z,3.30
2019-02-08T18:15:25.304Z,2.53
2019-02-08T18:17:52.091Z,2.10
2019-02-08T18:20:22.178Z,1.47
2019-02-08T18:22:48.896Z,1.53
2019-02-08T18:25:15.829Z,3.57
2019-02-08T18:27:42.513Z,1.70
2019-02-08T18:30:17.785Z,7.20
2019-02-08T18:32:44.461Z,2.17
2019-02-08T18:35:11.288Z,4.93
2019-02-08T18:37:37.977Z,2.83
2019-02-08T18:40:08.218Z,2.30
2019-02-08T18:42:34.916Z,1.63
2019-02-08T18:45:01.579Z,1.97
2019-02-08T18:47:28.256Z,3.17
2019-02-08T18:49:54.886Z,1.77
2019-02-08T18:52:21.586Z,1.67
2019-02-08T18:54:48.238Z,3.03
2019-02-08T18:57:15.009Z,3.20
2019-02-08T18:59:41.670Z,4.10
2019-02-08T19:02:08.285Z,1.73
2019-02-08T19:04:34.941Z,2.20
2019-02-08T19:07:01.566Z,3.30
2019-02-08T19:09:28.328Z,3.83
2019-02-08T19:11:55.056Z,2.40
2019-02-08T19:14:21.717Z,1.63
2019-02-08T19:16:48.349Z,1.63
2019-02-08T19:19:15.106Z,2.43
2019-02-08T19:21:41.789Z,1.80
2019-02-08T19:24:08.513Z,10.33
2019-02-08T19:26:35.181Z,1.50
2019-02-08T19:29:01.838Z,4.60
2019-02-08T19:31:28.495Z,2.40
2019-02-08T19:33:55.118Z,2.23
2019-02-08T19:36:21.773Z,2.10
2019-02-08T19:38:48.445Z,1.77
2019-02-08T19:41:15.162Z,3.43
2019-02-08T19:43:41.864Z,2.20
2019-02-08T19:46:08.621Z,2.10
2019-02-08T19:48:35.387Z,2.17
2019-02-08T19:51:02.000Z,2.17
2019-02-08T19:53:28.661Z,1.93
2019-02-08T19:55:55.280Z,1.70
2019-02-08T19:58:21.933Z,3.90
2019-02-08T20:00:48.585Z,1.37
2019-02-08T20:03:15.244Z,4.10
2019-02-08T20:05:41.973Z,2.80
2019-02-08T20:08:10.489Z,5.53
2019-02-08T20:10:42.790Z,3.27
2019-02-08T20:13:09.437Z,5.57
2019-02-08T20:15:36.204Z,2.00
2019-02-08T20:18:03.646Z,1.77
2019-02-08T20:20:30.309Z,1.73
2019-02-08T20:22:57.073Z,1.57
2019-02-08T20:25:29.573Z,3.90
2019-02-08T20:27:56.344Z,1.40
2019-02-08T20:30:24.019Z,2.20
2019-02-08T20:32:50.744Z,2.20
2019-02-08T20:35:24.879Z,2.23
2019-02-08T20:37:52.208Z,1.53
2019-02-08T20:40:30.677Z,1.10
2019-02-08T20:42:57.392Z,2.23
2019-02-08T20:45:29.227Z,1.30
2019-02-08T20:47:57.183Z,1.43
2019-02-08T20:50:23.946Z,2.90
2019-02-08T20:52:51.124Z,1.73
2019-02-08T20:55:18.777Z,1.37
2019-02-08T20:57:45.800Z,3.33
2019-02-08T21:00:29.146Z,1.53
2019-02-08T21:02:57.609Z,2.30
2019-02-08T21:05:24.294Z,1.53
2019-02-08T21:07:50.920Z,2.40
2019-02-08T21:10:17.575Z,1.40
2019-02-08T21:12:44.196Z,2.03
2019-02-08T21:15:14.480Z,0.97
2019-02-08T21:17:41.125Z,0.90
2019-02-08T21:20:10.976Z,9.10
2019-02-08T21:22:37.746Z,1.13
2019-02-08T21:25:10.640Z,5.03
2019-02-08T21:27:37.260Z,3.03
2019-02-08T21:30:07.501Z,1.33
2019-02-08T21:32:34.160Z,2.90
2019-02-08T21:35:00.816Z,1.10
2019-02-08T21:37:27.475Z,1.00
2019-02-08T21:39:54.129Z,2.87
2019-02-08T21:42:22.649Z,4.53
2019-02-08T21:44:49.312Z,1.50
2019-02-08T21:47:15.991Z,6.40
2019-02-08T21:49:42.624Z,1.70
2019-02-08T21:52:09.270Z,1.03
2019-02-08T21:54:35.977Z,1.43
2019-02-08T21:57:02.597Z,6.10
2019-02-08T21:59:29.557Z,5.37
2019-02-08T22:01:56.206Z,2.23
2019-02-08T22:04:22.862Z,1.90
2019-02-08T22:06:49.584Z,1.60
2019-02-08T22:09:16.328Z,0.80
2019-02-08T22:11:42.952Z,1.50
2019-02-08T22:14:09.722Z,1.97
2019-02-08T22:16:36.353Z,1.70
2019-02-08T22:19:03.019Z,1.00
2019-02-08T22:21:29.652Z,1.40
2019-02-08T22:23:56.346Z,0.90
2019-02-08T22:26:22.967Z,3.23
2019-02-08T22:28:49.607Z,2.70
2019-02-08T22:31:16.267Z,1.30
2019-02-08T22:33:42.954Z,2.60
2019-02-08T22:36:09.720Z,4.00
2019-02-08T22:38:36.417Z,1.83
2019-02-08T22:41:03.288Z,2.90
2019-02-08T22:43:29.902Z,1.70
2019-02-08T22:45:56.535Z,2.80
2019-02-08T22:48:23.282Z,1.80
2019-02-08T22:50:49.901Z,1.37
2019-02-08T22:53:16.560Z,0.73
2019-02-08T22:55:43.188Z,0.90
2019-02-08T22:58:09.827Z,1.00
2019-02-08T23:00:52.112Z,1.07
2019-02-08T23:03:18.796Z,1.70
2019-02-08T23:05:46.202Z,1.10
2019-02-08T23:08:13.066Z,0.60
2019-02-08T23:10:39.745Z,1.40
2019-02-08T23:13:07.965Z,2.70
2019-02-08T23:15:34.846Z,1.23
2019-02-08T23:18:01.456Z,1.20
2019-02-08T23:20:28.153Z,2.40
2019-02-08T23:22:56.390Z,1.60
2019-02-08T23:25:23.069Z,3.23
2019-02-08T23:27:49.689Z,0.90
2019-02-08T23:30:18.111Z,1.47
2019-02-08T23:32:44.776Z,1.27
2019-02-08T23:35:12.915Z,11.80
2019-02-08T23:37:39.616Z,0.90
2019-02-08T23:40:10.983Z,2.17
2019-02-08T23:42:37.664Z,2.60
2019-02-08T23:45:16.389Z,1.83
2019-02-08T23:47:43.041Z,4.40
2019-02-08T23:50:12.809Z,1.67
2019-02-08T23:52:39.473Z,2.23
2019-02-08T23:55:07.518Z,5.13
2019-02-08T23:57:34.188Z,3.70
